Terminal Aerodrome Forecast
Issued by NWS

Home | Current Version | Previous Version | Graphics & Text | Print | Product List | Glossary On
Versions: 1 2 3 4 5 6 7 8 9 10 11 12 13 14
000
FTUS43 KABR 192320
TAFPIR
TAF
KPIR 192320Z 2000/2024 10011KT P6SM OVC100
     FM200300 12006KT P6SM VCSH OVC060
     FM201800 33003KT P6SM SCT050=

USA.gov is the U.S. government's official web portal to all federal, state and local government web resources and services.